MSC Rania — 3EEB3 — position and weather

sailwx.info

Track history (hours):
 
Tides and Currents Weather Stations Pressure Air Temp Water Temp Dewpoint Dewpoint Depression Visibility Wind Speed Wind Dir Waves Ship Positions

MSC Rania

Last reported at 2015-Apr-15 04:04 UTC. Time now 2015-Apr-19 01:06 UTC.
Position N 37°53' W 076°10'.

Length 332 m; draft 13.4 m.

Type: Ship (hazmat cat A). MMSI: 371752000.

Date/timePositionNaut miles runAvg speedWind from/ knotsBaromVisibWave heightAir tempDewpointWater temp
2015-Apr-15 04:04N 37°53' W 076°10'1118.8
2015-Apr-15 03:29N 38°04' W 076°13'2619.3
2015-Apr-15 02:08N 38°29' W 076°24'1118.7
2015-Apr-15 01:33N 38°39' W 076°25'1919.4
2015-Apr-15 00:33N 38°59' W 076°23'1313.3
2015-Apr-14 23:34N 39°11' W 076°28'5 5.3
2015-Apr-14 22:34N 39°15' W 076°33'0 0.1
2015-Apr-14 21:33N 39°15' W 076°33'0 0.0
2015-Apr-14 20:33N 39°15' W 076°33'0 0.0
2015-Apr-14 19:33N 39°15' W 076°33'0 0.0
2015-Apr-14 18:33N 39°15' W 076°33'0 0.0
2015-Apr-14 17:33N 39°15' W 076°33'0 0.0
2015-Apr-14 16:33N 39°15' W 076°33'0 0.0
2015-Apr-14 15:30N 39°15' W 076°33'0 0.0
2015-Apr-14 14:33N 39°15' W 076°33'0 0.0
2015-Apr-14 13:33N 39°15' W 076°33'0 0.0
2015-Apr-14 11:12N 39°15' W 076°33'0 0.0
2015-Apr-14 10:33N 39°15' W 076°33'0 0.0
2015-Apr-14 09:33N 39°15' W 076°33'0 0.0
2015-Apr-14 07:22N 39°15' W 076°33'0 0.0
2015-Apr-14 06:03N 39°15' W 076°33'0 0.0
2015-Apr-14 05:30N 39°15' W 076°33'0 0.0
2015-Apr-14 04:30N 39°15' W 076°33'0 0.0
2015-Apr-14 03:33N 39°15' W 076°33'0 0.0
2015-Apr-14 02:33N 39°15' W 076°33'0 0.0
2015-Apr-14 01:33N 39°15' W 076°33'0 0.0
2015-Apr-14 00:33N 39°15' W 076°33'0 0.0
2015-Apr-13 23:33N 39°15' W 076°33'0 0.0
2015-Apr-13 22:33N 39°15' W 076°33'0 0.0
2015-Apr-13 21:33N 39°15' W 076°33'0 0.0
2015-Apr-13 20:33N 39°15' W 076°33'0 0.0
2015-Apr-13 19:33N 39°15' W 076°33'0 0.0
2015-Apr-13 18:33N 39°15' W 076°33'0 0.0
2015-Apr-13 17:33N 39°15' W 076°33'0 0.0
2015-Apr-13 16:33N 39°15' W 076°33'0 0.0
2015-Apr-13 15:33N 39°15' W 076°33'0 0.0
2015-Apr-13 14:30N 39°15' W 076°33'0 0.0
2015-Apr-13 13:33N 39°15' W 076°33'0 0.0
2015-Apr-13 12:33N 39°15' W 076°33'0 0.0
2015-Apr-13 11:32N 39°15' W 076°33'0 0.0
2015-Apr-13 10:32N 39°15' W 076°33'0 0.0
2015-Apr-13 09:32N 39°15' W 076°33'0 0.0
2015-Apr-13 08:32N 39°15' W 076°33'0 0.0
2015-Apr-13 07:32N 39°15' W 076°33'0 0.0
2015-Apr-13 06:32N 39°15' W 076°33'0 0.0
2015-Apr-13 05:32N 39°15' W 076°33'0 0.0
2015-Apr-13 04:32N 39°15' W 076°33'0 0.0
2015-Apr-13 03:32N 39°15' W 076°33'0 0.0
2015-Apr-13 02:32N 39°15' W 076°33'0 0.0
2015-Apr-13 01:26N 39°15' W 076°33'0 0.0
2015-Apr-13 00:33N 39°15' W 076°33'0 0.0
2015-Apr-12 23:32N 39°15' W 076°33'0 0.0
2015-Apr-12 22:32N 39°15' W 076°33'0 0.0
2015-Apr-12 21:32N 39°15' W 076°33'0 0.0
2015-Apr-12 20:32N 39°15' W 076°33'0 0.0
2015-Apr-12 19:32N 39°15' W 076°33'0 0.0
2015-Apr-12 18:32N 39°15' W 076°33'0 0.0
2015-Apr-12 17:32N 39°15' W 076°33'0 0.0
2015-Apr-12 16:32N 39°15' W 076°33'0 0.0
2015-Apr-12 15:32N 39°15' W 076°33'0 0.0
2015-Apr-12 14:32N 39°15' W 076°33'2 1.9
2015-Apr-12 13:33N 39°13' W 076°32'9 9.1
2015-Apr-12 12:33N 39°07' W 076°24'1211.5
2015-Apr-12 11:33N 38°55' W 076°23'4815.9
2015-Apr-12 08:33N 38°08' W 076°14'  
2015-Apr-09 20:34N 39°24' W 073°54'2120.5
2015-Apr-09 19:34N 39°45' W 073°52'3114.8
2015-Apr-09 17:26N 40°16' W 073°49'8 9.5
2015-Apr-09 16:34N 40°24' W 073°49'9 8.8
2015-Apr-09 15:33N 40°30' W 073°57'1110.6
2015-Apr-09 14:33N 40°39' W 074°05'2 2.5
2015-Apr-09 13:33N 40°40' W 074°08'0 0.3
2015-Apr-09 12:32N 40°40' W 074°09'0 0.0
2015-Apr-09 11:32N 40°40' W 074°09'0 0.0
2015-Apr-09 10:29N 40°40' W 074°09'0 0.0
2015-Apr-09 09:32N 40°40' W 074°09'0 0.0
2015-Apr-09 08:32N 40°40' W 074°09'0 0.0
2015-Apr-09 07:32N 40°40' W 074°09'0 0.0
2015-Apr-09 06:32N 40°40' W 074°09'0 0.0
2015-Apr-09 05:32N 40°40' W 074°09'0 0.0
2015-Apr-09 04:29N 40°40' W 074°09'0 0.0
2015-Apr-09 03:32N 40°40' W 074°09'0 0.0
2015-Apr-09 02:32N 40°40' W 074°09'0 0.0
2015-Apr-09 01:32N 40°40' W 074°09'0 0.0
2015-Apr-09 00:32N 40°40' W 074°09'0 0.0
2015-Apr-08 23:32N 40°40' W 074°09'0 0.0
2015-Apr-08 22:32N 40°40' W 074°09'0 0.0
2015-Apr-08 21:29N 40°40' W 074°09'0 0.0
2015-Apr-08 20:32N 40°40' W 074°09'0 0.0
2015-Apr-08 19:32N 40°40' W 074°09'0 0.0
2015-Apr-08 18:29N 40°40' W 074°09'0 0.0
2015-Apr-08 17:32N 40°40' W 074°09'0 0.0
2015-Apr-08 16:32N 40°40' W 074°09'0 0.0
2015-Apr-08 15:32N 40°40' W 074°09'0 0.0
2015-Apr-08 14:32N 40°40' W 074°09'0 0.0
2015-Apr-08 13:32N 40°40' W 074°09'0 0.0
2015-Apr-08 12:32N 40°40' W 074°09'0 0.0
2015-Apr-08 11:32N 40°40' W 074°09'0 0.0
2015-Apr-08 10:32N 40°40' W 074°09'0 0.0
2015-Apr-08 09:32N 40°40' W 074°09'0 0.0
2015-Apr-08 08:32N 40°40' W 074°09'0 0.0
2015-Apr-08 07:32N 40°40' W 074°09'0 0.0
2015-Apr-08 06:32N 40°40' W 074°09'0 0.0
2015-Apr-08 05:32N 40°40' W 074°09'0 0.0
2015-Apr-08 04:32N 40°40' W 074°09'0 0.0
2015-Apr-08 03:32N 40°40' W 074°09'0 0.0
2015-Apr-08 02:31N 40°40' W 074°09'0 0.0
2015-Apr-08 01:32N 40°40' W 074°09'0 0.0
2015-Apr-08 00:31N 40°40' W 074°09'0 0.0
2015-Apr-07 23:31N 40°40' W 074°09'0 0.0
2015-Apr-07 22:31N 40°40' W 074°09'0 0.0
2015-Apr-07 21:31N 40°40' W 074°09'0 0.0
2015-Apr-07 20:31N 40°40' W 074°09'0 0.0
2015-Apr-07 19:31N 40°40' W 074°09'0 0.0
2015-Apr-07 18:31N 40°40' W 074°09'0 0.0
2015-Apr-07 17:31N 40°40' W 074°09'0 0.0
2015-Apr-07 16:28N 40°40' W 074°09'0 0.0
2015-Apr-07 15:31N 40°40' W 074°09'0 0.0
2015-Apr-07 14:28N 40°40' W 074°09'0 0.0
2015-Apr-07 13:31N 40°40' W 074°09'0 0.0
2015-Apr-07 12:31N 40°40' W 074°09'0 0.0
2015-Apr-07 11:31N 40°40' W 074°09'0 0.0
2015-Apr-07 10:31N 40°40' W 074°09'1 1.5
2015-Apr-07 09:33N 40°39' W 074°09'5 4.9
2015-Apr-07 08:34N 40°37' W 074°03'1010.1
2015-Apr-07 07:33N 40°29' W 073°54'11 8.3
2015-Apr-07 06:11N 40°23' W 073°42'5 8.7
2015-Apr-07 05:33N 40°20' W 073°36'9 8.8
2015-Apr-07 04:32N 40°14' W 073°26'1110.7
2015-Apr-07 03:33N 40°08' W 073°15'1110.8
2015-Apr-07 02:33N 40°07' W 073°01'1110.8
2015-Apr-07 01:33N 40°07' W 072°47'1110.7
2015-Apr-07 00:33N 40°07' W 072°33'1110.8
2015-Apr-06 23:33N 40°06' W 072°19'1110.9
2015-Apr-06 22:33N 40°06' W 072°05'1110.9
2015-Apr-06 21:33N 40°05' W 071°51'1110.8
2015-Apr-06 20:33N 40°05' W 071°37'1010.4
2015-Apr-06 19:33N 40°05' W 071°23'1010.3
2015-Apr-06 18:33N 40°04' W 071°09'1010.5
2015-Apr-06 17:33N 40°04' W 070°56'1110.8
2015-Apr-06 16:33N 40°03' W 070°42'1310.7
2015-Apr-06 15:19N 40°01' W 070°25'8 9.4
2015-Apr-06 14:30N 40°01' W 070°15'  
Track history (hours):
 
Tides and Currents Weather Stations Pressure Air Temp Water Temp Dewpoint Dewpoint Depression Visibility Wind Speed Wind Dir Waves Ship Positions

MSC Rania

Last reported at 2015-Apr-15 04:04 UTC. Time now 2015-Apr-19 01:06 UTC.
Position N 37°53' W 076°10'.

Length 332 m; draft 13.4 m.

Type: Ship (hazmat cat A). MMSI: 371752000.

Date/timePositionNaut miles runAvg speedWind from/ knotsBaromVisibWave heightAir tempDewpointWater temp
2015-Apr-15 04:04N 37°53' W 076°10'1118.8
2015-Apr-15 03:29N 38°04' W 076°13'2619.3
2015-Apr-15 02:08N 38°29' W 076°24'1118.7
2015-Apr-15 01:33N 38°39' W 076°25'1919.4
2015-Apr-15 00:33N 38°59' W 076°23'1313.3
2015-Apr-14 23:34N 39°11' W 076°28'5 5.3
2015-Apr-14 22:34N 39°15' W 076°33'0 0.1
2015-Apr-14 21:33N 39°15' W 076°33'0 0.0
2015-Apr-14 20:33N 39°15' W 076°33'0 0.0
2015-Apr-14 19:33N 39°15' W 076°33'0 0.0
2015-Apr-14 18:33N 39°15' W 076°33'0 0.0
2015-Apr-14 17:33N 39°15' W 076°33'0 0.0
2015-Apr-14 16:33N 39°15' W 076°33'0 0.0
2015-Apr-14 15:30N 39°15' W 076°33'0 0.0
2015-Apr-14 14:33N 39°15' W 076°33'0 0.0
2015-Apr-14 13:33N 39°15' W 076°33'0 0.0
2015-Apr-14 11:12N 39°15' W 076°33'0 0.0
2015-Apr-14 10:33N 39°15' W 076°33'0 0.0
2015-Apr-14 09:33N 39°15' W 076°33'0 0.0
2015-Apr-14 07:22N 39°15' W 076°33'0 0.0
2015-Apr-14 06:03N 39°15' W 076°33'0 0.0
2015-Apr-14 05:30N 39°15' W 076°33'0 0.0
2015-Apr-14 04:30N 39°15' W 076°33'0 0.0
2015-Apr-14 03:33N 39°15' W 076°33'0 0.0
2015-Apr-14 02:33N 39°15' W 076°33'0 0.0
2015-Apr-14 01:33N 39°15' W 076°33'0 0.0
2015-Apr-14 00:33N 39°15' W 076°33'0 0.0
2015-Apr-13 23:33N 39°15' W 076°33'0 0.0
2015-Apr-13 22:33N 39°15' W 076°33'0 0.0
2015-Apr-13 21:33N 39°15' W 076°33'0 0.0
2015-Apr-13 20:33N 39°15' W 076°33'0 0.0
2015-Apr-13 19:33N 39°15' W 076°33'0 0.0
2015-Apr-13 18:33N 39°15' W 076°33'0 0.0
2015-Apr-13 17:33N 39°15' W 076°33'0 0.0
2015-Apr-13 16:33N 39°15' W 076°33'0 0.0
2015-Apr-13 15:33N 39°15' W 076°33'0 0.0
2015-Apr-13 14:30N 39°15' W 076°33'0 0.0
2015-Apr-13 13:33N 39°15' W 076°33'0 0.0
2015-Apr-13 12:33N 39°15' W 076°33'0 0.0
2015-Apr-13 11:32N 39°15' W 076°33'0 0.0
2015-Apr-13 10:32N 39°15' W 076°33'0 0.0
2015-Apr-13 09:32N 39°15' W 076°33'0 0.0
2015-Apr-13 08:32N 39°15' W 076°33'0 0.0
2015-Apr-13 07:32N 39°15' W 076°33'0 0.0
2015-Apr-13 06:32N 39°15' W 076°33'0 0.0
2015-Apr-13 05:32N 39°15' W 076°33'0 0.0
2015-Apr-13 04:32N 39°15' W 076°33'0 0.0
2015-Apr-13 03:32N 39°15' W 076°33'0 0.0
2015-Apr-13 02:32N 39°15' W 076°33'0 0.0
2015-Apr-13 01:26N 39°15' W 076°33'0 0.0
2015-Apr-13 00:33N 39°15' W 076°33'0 0.0
2015-Apr-12 23:32N 39°15' W 076°33'0 0.0
2015-Apr-12 22:32N 39°15' W 076°33'0 0.0
2015-Apr-12 21:32N 39°15' W 076°33'0 0.0
2015-Apr-12 20:32N 39°15' W 076°33'0 0.0
2015-Apr-12 19:32N 39°15' W 076°33'0 0.0
2015-Apr-12 18:32N 39°15' W 076°33'0 0.0
2015-Apr-12 17:32N 39°15' W 076°33'0 0.0
2015-Apr-12 16:32N 39°15' W 076°33'0 0.0
2015-Apr-12 15:32N 39°15' W 076°33'0 0.0
2015-Apr-12 14:32N 39°15' W 076°33'2 1.9
2015-Apr-12 13:33N 39°13' W 076°32'9 9.1
2015-Apr-12 12:33N 39°07' W 076°24'1211.5
2015-Apr-12 11:33N 38°55' W 076°23'4815.9
2015-Apr-12 08:33N 38°08' W 076°14'  
2015-Apr-09 20:34N 39°24' W 073°54'2120.5
2015-Apr-09 19:34N 39°45' W 073°52'3114.8
2015-Apr-09 17:26N 40°16' W 073°49'8 9.5
2015-Apr-09 16:34N 40°24' W 073°49'9 8.8
2015-Apr-09 15:33N 40°30' W 073°57'1110.6
2015-Apr-09 14:33N 40°39' W 074°05'2 2.5
2015-Apr-09 13:33N 40°40' W 074°08'0 0.3
2015-Apr-09 12:32N 40°40' W 074°09'0 0.0
2015-Apr-09 11:32N 40°40' W 074°09'0 0.0
2015-Apr-09 10:29N 40°40' W 074°09'0 0.0
2015-Apr-09 09:32N 40°40' W 074°09'0 0.0
2015-Apr-09 08:32N 40°40' W 074°09'0 0.0
2015-Apr-09 07:32N 40°40' W 074°09'0 0.0
2015-Apr-09 06:32N 40°40' W 074°09'0 0.0
2015-Apr-09 05:32N 40°40' W 074°09'0 0.0
2015-Apr-09 04:29N 40°40' W 074°09'0 0.0
2015-Apr-09 03:32N 40°40' W 074°09'0 0.0
2015-Apr-09 02:32N 40°40' W 074°09'0 0.0
2015-Apr-09 01:32N 40°40' W 074°09'0 0.0
2015-Apr-09 00:32N 40°40' W 074°09'0 0.0
2015-Apr-08 23:32N 40°40' W 074°09'0 0.0
2015-Apr-08 22:32N 40°40' W 074°09'0 0.0
2015-Apr-08 21:29N 40°40' W 074°09'0 0.0
2015-Apr-08 20:32N 40°40' W 074°09'0 0.0
2015-Apr-08 19:32N 40°40' W 074°09'0 0.0
2015-Apr-08 18:29N 40°40' W 074°09'0 0.0
2015-Apr-08 17:32N 40°40' W 074°09'0 0.0
2015-Apr-08 16:32N 40°40' W 074°09'0 0.0
2015-Apr-08 15:32N 40°40' W 074°09'0 0.0
2015-Apr-08 14:32N 40°40' W 074°09'0 0.0
2015-Apr-08 13:32N 40°40' W 074°09'0 0.0
2015-Apr-08 12:32N 40°40' W 074°09'0 0.0
2015-Apr-08 11:32N 40°40' W 074°09'0 0.0
2015-Apr-08 10:32N 40°40' W 074°09'0 0.0
2015-Apr-08 09:32N 40°40' W 074°09'0 0.0
2015-Apr-08 08:32N 40°40' W 074°09'0 0.0
2015-Apr-08 07:32N 40°40' W 074°09'0 0.0
2015-Apr-08 06:32N 40°40' W 074°09'0 0.0
2015-Apr-08 05:32N 40°40' W 074°09'0 0.0
2015-Apr-08 04:32N 40°40' W 074°09'0 0.0
2015-Apr-08 03:32N 40°40' W 074°09'0 0.0
2015-Apr-08 02:31N 40°40' W 074°09'0 0.0
2015-Apr-08 01:32N 40°40' W 074°09'0 0.0
2015-Apr-08 00:31N 40°40' W 074°09'0 0.0
2015-Apr-07 23:31N 40°40' W 074°09'0 0.0
2015-Apr-07 22:31N 40°40' W 074°09'0 0.0
2015-Apr-07 21:31N 40°40' W 074°09'0 0.0
2015-Apr-07 20:31N 40°40' W 074°09'0 0.0
2015-Apr-07 19:31N 40°40' W 074°09'0 0.0
2015-Apr-07 18:31N 40°40' W 074°09'0 0.0
2015-Apr-07 17:31N 40°40' W 074°09'0 0.0
2015-Apr-07 16:28N 40°40' W 074°09'0 0.0
2015-Apr-07 15:31N 40°40' W 074°09'0 0.0
2015-Apr-07 14:28N 40°40' W 074°09'0 0.0
2015-Apr-07 13:31N 40°40' W 074°09'0 0.0
2015-Apr-07 12:31N 40°40' W 074°09'0 0.0
2015-Apr-07 11:31N 40°40' W 074°09'0 0.0
2015-Apr-07 10:31N 40°40' W 074°09'1 1.5
2015-Apr-07 09:33N 40°39' W 074°09'5 4.9
2015-Apr-07 08:34N 40°37' W 074°03'1010.1
2015-Apr-07 07:33N 40°29' W 073°54'11 8.3
2015-Apr-07 06:11N 40°23' W 073°42'5 8.7
2015-Apr-07 05:33N 40°20' W 073°36'9 8.8
2015-Apr-07 04:32N 40°14' W 073°26'1110.7
2015-Apr-07 03:33N 40°08' W 073°15'1110.8
2015-Apr-07 02:33N 40°07' W 073°01'1110.8
2015-Apr-07 01:33N 40°07' W 072°47'1110.7
2015-Apr-07 00:33N 40°07' W 072°33'1110.8
2015-Apr-06 23:33N 40°06' W 072°19'1110.9
2015-Apr-06 22:33N 40°06' W 072°05'1110.9
2015-Apr-06 21:33N 40°05' W 071°51'1110.8
2015-Apr-06 20:33N 40°05' W 071°37'1010.4
2015-Apr-06 19:33N 40°05' W 071°23'1010.3
2015-Apr-06 18:33N 40°04' W 071°09'1010.5
2015-Apr-06 17:33N 40°04' W 070°56'1110.8
2015-Apr-06 16:33N 40°03' W 070°42'1310.7
2015-Apr-06 15:19N 40°01' W 070°25'8 9.4
2015-Apr-06 14:30N 40°01' W 070°15'  

Dump ship's entire track history